Encruzilhada do Sul, Brazil
Current Conditions -  °F | °C
As of 6:00 PM on Wednesday 26 Nov 2014 (Local Time) from SBPK Reporting Station
Few Clouds Few Clouds  
Wind Chill: 75°   Ceiling: Unl
Heat Index: 75°   Visibility: 6mi
Dew Point: 64°   Wind: 13mph
Humidity: 69%   Direction: 160°SSE
Pressure: 29.85"   Gusts: NA
Location:  30.54°S, 52.52°W
Report Text: SBPK 262000Z 16011KT 9999 FEW030 24/18 Q1011
Loading
Personal Weather Stations






























Interactive Weather Map New forecast layout! Learn more

10-Day Weather Forecast

Advertisements
Track Severe Weather on mobile